Time;durP1;ratioP1;P1;durP2;ratioP2;P2;SDS_P1;SDS_P2;PMS_P1;PMS_P2;Temp;Humidity;BMP_temperature;BMP_pressure;BME280_temperature;BME280_humidity;BME280_pressure;Samples;Min_cycle;Max_cycle;Signal;HPM_P1;HPM_P2
2023/11/20 00:00:12;;;;;;;4.40;1.33;;;;;;;10.99;55.25;100560.38;5064582;28;20037;-85
2023/11/20 00:02:42;;;;;;;3.95;1.38;;;;;;;10.96;55.07;100560.69;5071394;28;20047;-86
2023/11/20 00:05:11;;;;;;;4.75;1.42;;;;;;;10.98;55.42;100561.38;5069911;28;20110;-85
2023/11/20 00:07:42;;;;;;;5.90;1.25;;;;;;;11.01;54.94;100563.84;5071460;28;20439;-85
2023/11/20 00:10:10;;;;;;;3.58;1.25;;;;;;;10.99;55.36;100561.25;5090570;28;20419;-84
2023/11/20 00:12:38;;;;;;;2.25;0.98;;;;;;;10.98;55.40;100559.50;5072797;28;20526;-85
2023/11/20 00:15:08;;;;;;;5.38;1.38;;;;;;;11.00;54.95;100556.63;5057170;28;20042;-84
2023/11/20 00:17:37;;;;;;;6.20;1.30;;;;;;;10.99;54.95;100558.50;5037510;28;20056;-84
2023/11/20 00:20:06;;;;;;;3.58;1.08;;;;;;;11.01;54.77;100549.28;5090749;28;20589;-85
2023/11/20 00:22:34;;;;;;;4.32;1.20;;;;;;;11.00;55.15;100553.88;5075196;28;20093;-84
2023/11/20 00:25:04;;;;;;;3.17;1.05;;;;;;;11.00;54.80;100548.41;5070974;28;20132;-84
2023/11/20 00:27:33;;;;;;;4.88;1.40;;;;;;;11.02;54.71;100545.53;5066968;28;20044;-84
2023/11/20 00:30:01;;;;;;;5.18;1.42;;;;;;;11.02;55.05;100545.53;5052903;28;20041;-84
2023/11/20 00:32:29;;;;;;;4.05;1.08;;;;;;;11.03;54.92;100556.34;5067071;28;20040;-84
2023/11/20 00:35:00;;;;;;;5.15;1.60;;;;;;;11.04;54.42;100560.81;5050430;28;20131;-84
2023/11/20 00:37:28;;;;;;;3.35;1.38;;;;;;;11.04;54.54;100555.34;5079328;28;20104;-83
2023/11/20 00:39:56;;;;;;;5.05;1.27;;;;;;;11.05;54.59;100545.25;5098273;28;20070;-83
2023/11/20 00:42:25;;;;;;;3.53;1.40;;;;;;;11.07;55.05;100552.28;5098042;28;20049;-84
2023/11/20 00:44:53;;;;;;;3.63;1.70;;;;;;;11.05;54.95;100548.88;5077770;28;20050;-84
2023/11/20 00:47:21;;;;;;;6.60;1.35;;;;;;;11.06;54.66;100553.31;5090543;28;20036;-84
2023/11/20 00:49:49;;;;;;;4.75;1.23;;;;;;;11.06;54.48;100558.78;5089533;28;20052;-85
2023/11/20 00:52:17;;;;;;;3.85;1.20;;;;;;;11.07;54.39;100557.78;5081175;28;20044;-87
2023/11/20 00:54:46;;;;;;;5.45;1.40;;;;;;;11.06;54.76;100564.25;5055810;28;20084;-87
2023/11/20 00:57:14;;;;;;;3.45;1.58;;;;;;;11.07;54.43;100565.13;5074226;28;20119;-87
2023/11/20 00:59:43;;;;;;;3.70;1.63;;;;;;;11.07;54.50;100563.25;5065942;28;20071;-85
2023/11/20 01:02:12;;;;;;;4.78;1.60;;;;;;;11.06;54.46;100567.00;5072983;28;20037;-86
2023/11/20 01:04:40;;;;;;;5.38;1.38;;;;;;;11.08;54.71;100567.72;5082087;28;20051;-84
2023/11/20 01:07:08;;;;;;;3.97;1.10;;;;;;;11.09;54.49;100554.91;5075646;28;20045;-85
2023/11/20 01:09:36;;;;;;;4.07;1.50;;;;;;;11.08;54.34;100566.84;5081261;28;20068;-84
2023/11/20 01:12:04;;;;;;;4.35;1.00;;;;;;;11.07;54.73;100562.38;5073074;28;20509;-85
2023/11/20 01:14:33;;;;;;;2.70;1.02;;;;;;;11.08;54.75;100570.47;5069041;28;20055;-84
2023/11/20 01:17:04;;;;;;;3.38;1.10;;;;;;;11.10;54.69;100562.97;5067630;28;20416;-85
2023/11/20 01:19:33;;;;;;;2.47;1.08;;;;;;;11.07;54.93;100566.00;5070030;28;20036;-84
2023/11/20 01:22:01;;;;;;;2.78;0.90;;;;;;;11.08;54.89;100575.94;5051044;28;20110;-84
2023/11/20 01:24:30;;;;;;;3.25;1.02;;;;;;;11.07;54.97;100570.59;5062457;28;20159;-83
2023/11/20 01:27:00;;;;;;;2.08;0.90;;;;;;;11.08;54.59;100575.94;5076522;28;20575;-84
2023/11/20 01:29:28;;;;;;;3.30;0.90;;;;;;;11.09;54.98;100579.53;5059237;28;20052;-84
2023/11/20 01:31:57;;;;;;;2.92;0.95;;;;;;;11.07;54.87;100578.81;5071359;28;20036;-84
2023/11/20 01:34:27;;;;;;;2.28;0.60;;;;;;;11.08;54.68;100572.34;5070052;28;20094;-84
2023/11/20 01:36:55;;;;;;;2.47;0.90;;;;;;;11.03;54.71;100574.66;5038241;28;20037;-84
2023/11/20 01:39:24;;;;;;;2.25;0.82;;;;;;;11.02;55.10;100573.78;5053381;28;20044;-86
2023/11/20 01:41:52;;;;;;;3.00;1.42;;;;;;;11.03;55.34;100577.41;5068286;28;20085;-87
2023/11/20 01:44:20;;;;;;;2.45;0.82;;;;;;;11.02;54.89;100575.66;5061991;28;20044;-86
2023/11/20 01:46:50;;;;;;;2.85;0.90;;;;;;;11.04;54.80;100576.38;5075228;28;20035;-86
2023/11/20 01:49:18;;;;;;;3.58;1.17;;;;;;;11.01;55.09;100568.44;5071417;28;20044;-87
2023/11/20 01:51:48;;;;;;;3.15;0.98;;;;;;;10.97;55.16;100563.28;5057333;28;20041;-85
2023/11/20 01:54:17;;;;;;;2.78;0.85;;;;;;;10.97;54.89;100571.50;5081237;28;20098;-86
2023/11/20 01:56:47;;;;;;;2.95;1.00;;;;;;;10.98;55.37;100575.94;5059219;28;20131;-85
2023/11/20 01:59:17;;;;;;;2.67;0.80;;;;;;;10.98;54.99;100573.19;5071450;28;20049;-84
2023/11/20 02:01:46;;;;;;;2.58;1.08;;;;;;;10.97;55.39;100570.63;5074026;28;20067;-85
2023/11/20 02:04:14;;;;;;;3.33;1.02;;;;;;;10.96;55.38;100567.03;5057829;28;20440;-85
2023/11/20 02:06:44;;;;;;;3.70;1.20;;;;;;;10.96;55.04;100574.38;5058068;28;20056;-85
2023/11/20 02:09:13;;;;;;;2.25;0.80;;;;;;;10.96;55.40;100574.38;5075389;28;20041;-85
2023/11/20 02:11:44;;;;;;;3.08;0.93;;;;;;;10.96;55.48;100566.16;5076730;28;20044;-85
2023/11/20 02:14:14;;;;;;;2.58;0.98;;;;;;;10.93;55.20;100563.69;5078050;28;20090;-86
2023/11/20 02:16:42;;;;;;;3.60;1.05;;;;;;;10.94;55.19;100570.91;5071187;28;20412;-84
2023/11/20 02:19:12;;;;;;;2.83;0.98;;;;;;;10.94;55.56;100568.16;5058386;28;20539;-85
2023/11/20 02:21:42;;;;;;;4.13;1.05;;;;;;;10.94;55.44;100565.44;5058890;28;20044;-84
2023/11/20 02:24:11;;;;;;;3.03;1.10;;;;;;;10.93;54.99;100566.44;5073124;28;20048;-84
2023/11/20 02:26:57;;;;;;;4.43;1.25;;;;;;;10.93;55.01;100555.47;5072395;28;20075;-85
2023/11/20 02:29:46;;;;;;;3.03;1.15;;;;;;;10.95;55.00;100554.34;5072922;28;20127;-86
2023/11/20 02:32:14;;;;;;;4.80;0.95;;;;;;;10.93;55.20;100561.81;5074446;28;20044;-84
2023/11/20 02:34:43;;;;;;;3.90;1.00;;;;;;;10.92;55.09;100553.75;5066227;28;20060;-85
2023/11/20 02:37:11;;;;;;;4.10;1.00;;;;;;;10.90;55.37;100553.03;5051590;28;20049;-85
2023/11/20 02:39:39;;;;;;;4.72;1.48;;;;;;;10.91;55.29;100547.41;5077858;28;20036;-84
2023/11/20 02:42:07;;;;;;;4.00;1.15;;;;;;;10.89;54.91;100549.44;5090999;28;20073;-84
2023/11/20 02:44:39;;;;;;;3.15;1.00;;;;;;;10.95;54.63;100546.13;5065814;28;20041;-86
2023/11/20 02:47:09;;;;;;;4.30;1.00;;;;;;;10.93;54.72;100545.41;5073207;28;20058;-85
2023/11/20 02:49:37;;;;;;;4.13;1.27;;;;;;;10.93;54.78;100541.78;5072737;28;20036;-86
2023/11/20 02:52:06;;;;;;;4.13;1.30;;;;;;;10.94;54.67;100530.69;5056174;28;20047;-86
2023/11/20 02:54:36;;;;;;;3.15;1.25;;;;;;;10.94;54.66;100538.06;5074197;28;20068;-88
2023/11/20 02:57:04;;;;;;;3.05;1.20;;;;;;;10.94;55.03;100538.06;5069421;28;20072;-87
2023/11/20 02:59:33;;;;;;;4.60;1.10;;;;;;;10.93;54.75;100544.53;5075086;28;20044;-87
2023/11/20 03:02:01;;;;;;;3.58;1.25;;;;;;;10.92;54.95;100535.44;5068253;28;20110;-88
2023/11/20 03:04:31;;;;;;;4.45;1.40;;;;;;;10.94;54.66;100532.56;5071625;28;20036;-87
2023/11/20 03:06:59;;;;;;;6.90;1.42;;;;;;;10.94;55.05;100544.38;5059471;28;20077;-85
2023/11/20 03:09:28;;;;;;;3.85;1.30;;;;;;;10.94;54.85;100540.78;5076060;28;20079;-84
2023/11/20 03:11:56;;;;;;;4.50;1.65;;;;;;;10.94;54.50;100546.25;5070473;28;20043;-85
2023/11/20 03:14:24;;;;;;;3.65;1.02;;;;;;;10.94;54.48;100540.78;5050026;28;20045;-85
2023/11/20 03:16:52;;;;;;;4.80;1.23;;;;;;;10.94;54.46;100538.91;5070684;28;20079;-85
2023/11/20 03:19:20;;;;;;;3.78;1.10;;;;;;;10.93;54.69;100542.66;5055061;28;20052;-86
2023/11/20 03:21:51;;;;;;;3.75;1.35;;;;;;;10.95;54.83;100546.13;5071884;28;20131;-85
2023/11/20 03:24:19;;;;;;;4.47;1.40;;;;;;;10.91;54.20;100536.44;5067925;28;20110;-85
2023/11/20 03:26:48;;;;;;;3.85;1.13;;;;;;;10.93;54.65;100534.44;5054708;28;20075;-85
2023/11/20 03:29:16;;;;;;;3.25;0.93;;;;;;;10.94;54.37;100538.91;5072220;28;20036;-85
2023/11/20 03:31:44;;;;;;;6.45;1.60;;;;;;;10.95;54.17;100539.78;5053948;28;20087;-85
2023/11/20 03:34:13;;;;;;;4.85;1.67;;;;;;;10.95;54.43;100539.78;5054350;28;20412;-85
2023/11/20 03:36:42;;;;;;;3.47;1.30;;;;;;;10.95;54.51;100540.66;5071717;28;20082;-85
2023/11/20 03:39:11;;;;;;;4.00;1.10;;;;;;;10.94;54.50;100532.56;5077955;28;20044;-85
2023/11/20 03:41:40;;;;;;;4.80;1.20;;;;;;;10.95;53.89;100537.91;5071982;28;20033;-85
2023/11/20 03:44:08;;;;;;;2.60;0.95;;;;;;;10.96;54.36;100544.25;5074696;28;20044;-85
2023/11/20 03:46:50;;;;;;;4.05;1.17;;;;;;;10.92;54.41;100543.66;5055072;28;20043;-85
2023/11/20 03:49:18;;;;;;;3.90;1.00;;;;;;;10.95;54.00;100545.25;5070175;28;20428;-84
2023/11/20 03:51:46;;;;;;;4.28;0.88;;;;;;;10.93;54.07;100547.28;5073654;28;20048;-85
2023/11/20 03:54:16;;;;;;;2.40;1.00;;;;;;;10.96;54.25;100547.84;5055812;28;20059;-85
2023/11/20 03:56:44;;;;;;;3.88;0.93;;;;;;;10.94;54.32;100549.00;5072695;28;20052;-84
2023/11/20 03:59:12;;;;;;;3.55;1.02;;;;;;;10.96;54.29;100549.72;5074060;28;20040;-86
2023/11/20 04:01:41;;;;;;;4.45;1.52;;;;;;;10.95;53.87;100554.34;5073458;28;20063;-83
2023/11/20 04:04:09;;;;;;;3.33;1.38;;;;;;;10.94;53.79;100565.44;5068447;28;20040;-84
2023/11/20 04:06:37;;;;;;;4.85;1.23;;;;;;;10.95;53.88;100568.03;5090762;28;20040;-84
2023/11/20 04:09:08;;;;;;;3.28;1.00;;;;;;;10.95;54.12;100562.56;5085091;28;20459;-84
2023/11/20 04:11:38;;;;;;;3.95;1.00;;;;;;;10.95;53.84;100559.81;5074774;28;20428;-85
2023/11/20 04:14:06;;;;;;;2.47;0.90;;;;;;;10.93;54.17;100559.09;5080758;28;20048;-86
2023/11/20 04:16:36;;;;;;;3.28;0.80;;;;;;;10.96;53.75;100571.63;5084498;28;20143;-84
2023/11/20 04:19:05;;;;;;;2.30;0.95;;;;;;;10.94;53.70;100562.69;5094377;28;20094;-84
2023/11/20 04:21:33;;;;;;;2.20;0.85;;;;;;;10.93;54.34;100556.34;5071312;28;20075;-85
2023/11/20 04:24:02;;;;;;;3.72;0.90;;;;;;;10.93;53.90;100559.09;5073264;28;20044;-85
2023/11/20 04:26:30;;;;;;;4.70;0.98;;;;;;;10.95;53.99;100554.34;5078731;28;20045;-84
2023/11/20 04:29:04;;;;;;;1.77;0.80;;;;;;;10.93;54.38;100558.22;5072915;28;20037;-83
2023/11/20 04:31:32;;;;;;;2.33;0.80;;;;;;;10.93;54.12;100555.47;5070045;28;20527;-84
2023/11/20 04:34:01;;;;;;;3.88;1.45;;;;;;;10.92;54.00;100548.28;5076712;28;20048;-86
2023/11/20 04:36:29;;;;;;;4.32;0.80;;;;;;;10.94;54.39;100549.88;5071105;28;20312;-85
2023/11/20 04:38:57;;;;;;;3.28;0.90;;;;;;;10.93;53.92;100547.28;5072707;28;20063;-85
2023/11/20 04:41:25;;;;;;;2.80;0.80;;;;;;;10.94;54.25;100554.47;5053456;28;20048;-86
2023/11/20 04:43:53;;;;;;;2.45;0.90;;;;;;;10.93;54.28;100544.53;5064693;28;20044;-86
2023/11/20 04:46:24;;;;;;;3.60;0.80;;;;;;;10.94;54.45;100546.25;5053735;28;20520;-87
2023/11/20 04:48:52;;;;;;;2.25;0.95;;;;;;;10.90;54.02;100542.06;5051620;28;20048;-84
2023/11/20 04:51:21;;;;;;;2.50;0.80;;;;;;;10.91;54.33;100544.66;5067332;28;20072;-84
2023/11/20 04:53:50;;;;;;;3.20;0.80;;;;;;;10.93;53.99;100550.88;5083113;28;20036;-84
2023/11/20 04:56:19;;;;;;;1.50;0.82;;;;;;;10.93;53.94;100541.78;5072878;28;20040;-84
2023/11/20 04:58:47;;;;;;;2.90;1.10;;;;;;;10.93;54.48;100547.28;5076477;28;20060;-84
2023/11/20 05:01:16;;;;;;;1.58;0.80;;;;;;;10.92;54.15;100543.66;5080795;28;20294;-84
2023/11/20 05:03:45;;;;;;;3.08;0.98;;;;;;;10.93;53.98;100537.19;5072817;28;20056;-85
2023/11/20 05:06:17;;;;;;;2.20;1.08;;;;;;;10.89;54.36;100549.44;5066749;28;20048;-84
2023/11/20 05:08:46;;;;;;;2.92;0.85;;;;;;;10.91;54.12;100547.41;5061111;28;20037;-85
2023/11/20 05:11:18;;;;;;;2.00;0.80;;;;;;;10.93;54.55;100544.53;5057036;28;20676;-84
2023/11/20 05:13:46;;;;;;;2.15;1.00;;;;;;;10.87;54.16;100547.84;5073209;28;20723;-85
2023/11/20 05:16:15;;;;;;;3.67;1.25;;;;;;;10.92;54.36;100548.28;5066825;28;20041;-85
2023/11/20 05:18:43;;;;;;;2.97;1.02;;;;;;;10.91;54.53;100544.66;5061311;28;20044;-85
2023/11/20 05:21:12;;;;;;;2.42;0.98;;;;;;;10.90;54.44;100544.81;5060264;28;20063;-84
2023/11/20 05:23:40;;;;;;;3.42;1.10;;;;;;;10.89;54.44;100540.38;5077612;28;20515;-84
2023/11/20 05:26:09;;;;;;;2.85;1.20;;;;;;;10.89;54.54;100548.59;5071389;28;20075;-86
2023/11/20 05:28:37;;;;;;;3.63;1.35;;;;;;;10.88;54.08;100546.84;5069800;28;20036;-84
2023/11/20 05:31:05;;;;;;;3.45;1.88;;;;;;;10.85;54.26;100536.19;5083435;28;20036;-85
2023/11/20 05:33:33;;;;;;;3.60;1.13;;;;;;;10.86;54.49;100541.50;5082619;28;20052;-84
2023/11/20 05:36:02;;;;;;;4.05;1.30;;;;;;;10.84;54.39;100538.03;5084174;28;20503;-85
2023/11/20 05:38:31;;;;;;;2.97;1.13;;;;;;;10.84;54.17;100537.19;5084831;28;20063;-86
2023/11/20 05:40:59;;;;;;;4.93;1.55;;;;;;;10.85;54.31;100541.66;5081637;28;20135;-86
2023/11/20 05:43:27;;;;;;;4.10;1.40;;;;;;;10.84;54.00;100535.31;5079291;28;20062;-85
2023/11/20 05:45:55;;;;;;;2.45;1.10;;;;;;;10.85;54.45;100547.13;5082961;28;20040;-87
2023/11/20 05:48:23;;;;;;;3.30;1.30;;;;;;;10.85;53.98;100548.00;5083558;28;20447;-85
2023/11/20 05:50:51;;;;;;;4.20;1.30;;;;;;;10.84;53.91;100538.03;5070078;28;20041;-86
2023/11/20 05:53:19;;;;;;;6.45;1.58;;;;;;;10.84;53.89;100551.72;5076510;28;20519;-85
2023/11/20 05:55:49;;;;;;;2.75;1.20;;;;;;;10.85;53.98;100558.94;5076366;28;20300;-85
2023/11/20 05:58:17;;;;;;;4.22;1.50;;;;;;;10.84;54.23;100549.00;5090717;28;20044;-85
2023/11/20 06:00:45;;;;;;;4.30;1.42;;;;;;;10.83;54.06;100552.72;5069566;28;20045;-85
2023/11/20 06:03:14;;;;;;;5.45;1.45;;;;;;;10.81;53.94;100551.19;5061181;28;20036;-85
2023/11/20 06:05:42;;;;;;;3.97;1.65;;;;;;;10.81;53.58;100554.75;5060811;28;20037;-85
2023/11/20 06:08:10;;;;;;;5.60;1.45;;;;;;;10.83;53.78;100555.47;5066345;28;20037;-84
2023/11/20 06:10:38;;;;;;;5.35;1.40;;;;;;;10.83;53.85;100565.56;5065071;28;20512;-86
2023/11/20 06:13:08;;;;;;;3.88;1.52;;;;;;;10.85;53.96;100563.56;5080183;28;20050;-84
2023/11/20 06:15:36;;;;;;;3.83;1.40;;;;;;;10.82;53.78;100561.94;5072882;28;20045;-84
2023/11/20 06:18:04;;;;;;;5.45;1.50;;;;;;;10.82;53.57;100563.81;5067356;28;20068;-84
2023/11/20 06:20:33;;;;;;;4.70;1.40;;;;;;;10.80;53.53;100569.47;5075729;28;20092;-84
2023/11/20 06:23:02;;;;;;;4.82;1.35;;;;;;;10.80;53.27;100571.34;5073599;28;20051;-85
2023/11/20 06:25:30;;;;;;;5.32;2.00;;;;;;;10.79;53.17;100567.72;5072409;28;20052;-85
2023/11/20 06:27:59;;;;;;;5.18;1.60;;;;;;;10.80;53.76;100574.94;5058743;28;20060;-85
2023/11/20 06:30:28;;;;;;;5.15;1.80;;;;;;;10.80;53.60;100579.56;5060885;28;20055;-85
2023/11/20 06:32:56;;;;;;;6.45;1.70;;;;;;;10.80;53.17;100582.28;5075768;28;20396;-86
2023/11/20 06:35:25;;;;;;;5.47;1.52;;;;;;;10.79;53.22;100580.56;5057035;28;20396;-87
2023/11/20 06:37:53;;;;;;;4.10;1.50;;;;;;;10.77;53.75;100575.22;5056989;28;20052;-87
2023/11/20 06:40:21;;;;;;;2.95;1.33;;;;;;;10.80;53.29;100582.28;5078606;28;20044;-86
2023/11/20 06:42:50;;;;;;;5.82;1.75;;;;;;;10.77;53.25;100586.16;5054230;28;20069;-86
2023/11/20 06:45:20;;;;;;;5.38;1.63;;;;;;;10.78;53.53;100581.56;5049959;28;20237;-87
2023/11/20 06:47:50;;;;;;;5.95;1.77;;;;;;;10.80;53.24;100590.50;5080328;28;20051;-86
2023/11/20 06:50:19;;;;;;;5.05;1.52;;;;;;;10.79;53.46;100588.75;5074280;28;20095;-86
2023/11/20 06:52:47;;;;;;;6.35;1.75;;;;;;;10.77;53.64;100582.56;5084966;28;20461;-86
2023/11/20 06:55:16;;;;;;;6.47;1.98;;;;;;;10.79;53.19;100586.03;5081725;28;20426;-87
2023/11/20 06:57:46;;;;;;;4.05;1.98;;;;;;;10.78;53.19;100587.03;5073964;28;20048;-87
2023/11/20 07:00:15;;;;;;;5.32;1.85;;;;;;;10.79;52.98;100594.25;5075011;28;20044;-87
2023/11/20 07:02:44;;;;;;;4.63;1.73;;;;;;;10.78;52.93;100597.97;5071754;28;20044;-86
2023/11/20 07:05:17;;;;;;;3.72;1.40;;;;;;;10.80;52.99;100593.25;5073833;28;20142;-87
2023/11/20 07:07:52;;;;;;;4.85;1.45;;;;;;;10.77;52.92;100597.13;5072888;28;20036;-87
2023/11/20 07:10:23;;;;;;;5.70;2.42;;;;;;;10.78;53.19;100603.47;5061193;28;20051;-85
2023/11/20 07:12:53;;;;;;;6.30;1.67;;;;;;;10.78;53.20;100606.19;5070699;28;20048;-85
2023/11/20 07:15:21;;;;;;;5.70;1.85;;;;;;;10.73;53.28;100601.13;5056818;28;20483;-87
2023/11/20 07:17:50;;;;;;;6.15;2.10;;;;;;;10.76;52.96;100611.81;5065844;28;20321;-86
2023/11/20 07:20:20;;;;;;;5.50;1.70;;;;;;;10.76;52.81;100608.19;5078596;28;20147;-87
2023/11/20 07:22:55;;;;;;;7.35;1.85;;;;;;;10.77;52.85;100618.16;5053907;28;20049;-84
2023/11/20 07:25:24;;;;;;;5.47;1.60;;;;;;;10.73;52.82;100620.28;5079911;28;20082;-83
2023/11/20 07:27:52;;;;;;;5.72;1.73;;;;;;;10.74;52.76;100624.75;5059877;28;20044;-84
2023/11/20 07:30:20;;;;;;;3.67;1.48;;;;;;;10.75;53.22;100628.38;5064611;28;20037;-83
2023/11/20 07:32:48;;;;;;;6.05;1.98;;;;;;;10.74;52.90;100638.44;5068639;28;20045;-85
2023/11/20 07:35:16;;;;;;;7.50;1.60;;;;;;;10.74;52.88;100638.44;5094830;28;20059;-83
2023/11/20 07:37:46;;;;;;;6.95;1.73;;;;;;;10.73;52.57;100639.44;5093578;28;20070;-83
2023/11/20 07:40:15;;;;;;;5.60;1.50;;;;;;;10.73;53.10;100638.63;5092945;28;20128;-82
2023/11/20 07:42:43;;;;;;;5.43;1.60;;;;;;;10.72;52.62;100637.75;5083720;28;20069;-82
2023/11/20 07:45:12;;;;;;;5.78;2.20;;;;;;;10.71;53.05;100636.00;5098424;28;20067;-84
2023/11/20 07:47:41;;;;;;;6.55;2.20;;;;;;;10.73;52.75;100642.19;5084653;28;20559;-83
2023/11/20 07:50:10;;;;;;;5.85;1.98;;;;;;;10.71;52.74;100644.22;5068085;28;20133;-85
2023/11/20 07:52:39;;;;;;;6.82;2.20;;;;;;;10.72;52.88;100645.09;5064468;28;20040;-85
2023/11/20 07:55:08;;;;;;;6.18;1.45;;;;;;;10.72;52.72;100643.22;5069192;28;20048;-84
2023/11/20 07:57:37;;;;;;;5.22;1.40;;;;;;;10.72;53.10;100635.00;5087428;28;20056;-83
2023/11/20 08:00:06;;;;;;;4.90;1.95;;;;;;;10.73;53.06;100644.91;5068323;28;20032;-84
2023/11/20 08:02:41;;;;;;;5.55;1.58;;;;;;;10.73;52.74;100641.34;5084949;28;20614;-84
2023/11/20 08:05:09;;;;;;;6.97;2.00;;;;;;;10.73;52.65;100633.13;5087254;28;20045;-82
2023/11/20 08:07:39;;;;;;;8.05;1.80;;;;;;;10.72;52.67;100632.28;5077283;28;20060;-85
2023/11/20 08:10:09;;;;;;;5.95;1.98;;;;;;;10.74;52.64;100638.44;5078286;28;20045;-84
2023/11/20 08:12:38;;;;;;;7.32;1.80;;;;;;;10.73;52.70;100638.63;5054602;28;20107;-84
2023/11/20 08:15:11;;;;;;;6.65;2.13;;;;;;;10.75;52.86;100636.56;5090319;28;20047;-84
2023/11/20 08:17:41;;;;;;;7.32;1.77;;;;;;;10.74;52.56;100641.19;5087470;28;20040;-85
2023/11/20 08:20:10;;;;;;;5.50;1.95;;;;;;;10.75;52.62;100644.78;5089354;28;20059;-84
2023/11/20 08:22:39;;;;;;;5.60;1.75;;;;;;;10.74;53.09;100634.84;5068106;28;20551;-84
2023/11/20 08:25:10;;;;;;;5.63;1.88;;;;;;;10.76;52.62;100639.19;5070095;28;20051;-85
2023/11/20 08:27:40;;;;;;;6.70;1.83;;;;;;;10.80;52.56;100646.13;5081922;28;20036;-85
2023/11/20 08:30:12;;;;;;;4.63;1.77;;;;;;;10.80;53.17;100648.84;5092104;28;20101;-86
2023/11/20 08:32:40;;;;;;;5.90;1.45;;;;;;;10.80;53.11;100640.66;5082151;28;20044;-84
2023/11/20 08:35:09;;;;;;;7.45;2.08;;;;;;;10.82;52.56;100637.75;5087262;28;20063;-83
2023/11/20 08:37:37;;;;;;;4.63;1.58;;;;;;;10.82;53.23;100635.00;5095314;28;20048;-83
2023/11/20 08:40:08;;;;;;;5.60;1.60;;;;;;;10.84;52.58;100631.13;5083618;28;20131;-85
2023/11/20 08:42:38;;;;;;;4.88;1.40;;;;;;;10.85;53.11;100632.84;5086836;28;20108;-85
2023/11/20 08:45:07;;;;;;;6.63;1.50;;;;;;;10.86;52.93;100641.94;5086007;28;20098;-86
2023/11/20 08:47:35;;;;;;;7.50;1.50;;;;;;;10.86;52.51;100639.19;5061216;28;20095;-84
2023/11/20 08:50:05;;;;;;;4.43;2.05;;;;;;;10.85;52.76;100632.84;5094804;28;20058;-85
2023/11/20 08:52:33;;;;;;;4.45;1.67;;;;;;;10.87;52.74;100629.97;5085158;28;20610;-84
2023/11/20 08:55:02;;;;;;;4.90;1.98;;;;;;;10.88;52.50;100631.72;5084824;28;20060;-86
2023/11/20 08:57:32;;;;;;;5.75;1.75;;;;;;;10.89;52.81;100638.94;5079818;28;20118;-84
2023/11/20 09:00:11;;;;;;;4.95;1.50;;;;;;;10.89;52.45;100628.84;5063495;28;20041;-84
2023/11/20 09:02:49;;;;;;;6.05;1.40;;;;;;;10.91;52.46;100628.69;5082583;28;20049;-83
2023/11/20 09:05:17;;;;;;;4.18;1.30;;;;;;;10.88;52.31;100626.25;5082244;28;20284;-82
2023/11/20 09:07:45;;;;;;;5.80;1.73;;;;;;;10.91;52.31;100625.94;5058156;28;20059;-83
2023/11/20 09:10:13;;;;;;;4.90;1.50;;;;;;;10.92;52.54;100627.69;5081718;28;20041;-83
2023/11/20 09:12:42;;;;;;;6.43;1.48;;;;;;;10.93;52.25;100624.81;5084092;28;20067;-83
2023/11/20 09:15:13;;;;;;;5.22;1.42;;;;;;;10.94;52.22;100628.41;5082681;28;20037;-82
2023/11/20 09:17:42;;;;;;;4.47;1.20;;;;;;;10.93;52.83;100630.28;5086812;28;20048;-82
2023/11/20 09:20:12;;;;;;;3.92;1.33;;;;;;;10.96;52.82;100631.88;5051585;28;20040;-81
2023/11/20 09:22:40;;;;;;;4.78;1.23;;;;;;;10.95;52.33;100638.34;5069691;28;20586;-82
2023/11/20 09:25:08;;;;;;;4.47;1.20;;;;;;;10.95;52.69;100635.63;5052864;28;20048;-83
2023/11/20 09:27:37;;;;;;;4.38;1.60;;;;;;;10.94;52.74;100633.88;5061609;28;20117;-82
2023/11/20 09:30:06;;;;;;;5.18;1.30;;;;;;;10.96;52.94;100635.47;5035426;28;20051;-82
2023/11/20 09:32:36;;;;;;;5.40;1.60;;;;;;;10.98;52.92;100629.84;5050343;28;20033;-83
2023/11/20 09:35:05;;;;;;;3.97;1.20;;;;;;;10.96;53.13;100638.22;5073750;28;20052;-82
2023/11/20 09:37:36;;;;;;;3.42;1.30;;;;;;;10.94;52.74;100634.75;5067553;28;20036;-82
2023/11/20 09:40:05;;;;;;;4.00;1.35;;;;;;;10.94;52.90;100625.66;5066076;28;20075;-81
2023/11/20 09:42:35;;;;;;;4.70;1.60;;;;;;;10.94;53.02;100628.41;5068230;28;20041;-81
2023/11/20 09:45:07;;;;;;;5.35;1.20;;;;;;;10.95;53.20;100624.66;5069815;28;20045;-82
2023/11/20 09:47:37;;;;;;;5.35;1.40;;;;;;;10.92;53.39;100630.41;5067324;28;20036;-82
2023/11/20 09:50:10;;;;;;;4.93;1.20;;;;;;;10.93;53.19;100635.75;5051902;28;20463;-83
2023/11/20 09:52:41;;;;;;;4.50;1.25;;;;;;;10.93;53.29;100632.16;5068515;28;20600;-83
2023/11/20 09:55:10;;;;;;;3.95;1.02;;;;;;;10.93;53.63;100634.88;5071902;28;20037;-83
2023/11/20 09:57:38;;;;;;;3.25;1.15;;;;;;;10.94;53.44;100636.63;5046252;28;20052;-83
2023/11/20 10:00:11;;;;;;;4.63;1.20;;;;;;;10.94;53.53;100633.88;5047446;28;20416;-82
2023/11/20 10:02:40;;;;;;;;;;;;;;;10.68;54.56;100641.75;5066703;28;20033;-84
2023/11/20 10:05:09;;;;;;;3.95;1.30;;;;;;;10.89;54.10;100628.84;5075169;28;19951;-84
2023/11/20 10:07:48;;;;;;;2.95;1.13;;;;;;;10.94;53.99;100628.41;5075055;28;20135;-84
2023/11/20 10:10:17;;;;;;;3.78;1.10;;;;;;;10.93;53.83;100626.66;5081424;28;20071;-84
2023/11/20 10:12:48;;;;;;;4.90;1.85;;;;;;;10.98;53.79;100629.84;5076205;28;20048;-83
2023/11/20 10:15:18;;;;;;;3.90;1.25;;;;;;;10.96;53.97;100626.41;5081884;28;20527;-83
2023/11/20 10:17:48;;;;;;;2.35;1.20;;;;;;;10.99;54.07;100620.63;5077482;28;20162;-84
2023/11/20 10:20:16;;;;;;;3.33;1.13;;;;;;;10.99;53.87;100623.34;5055039;28;20508;-83
2023/11/20 10:22:46;;;;;;;4.22;1.33;;;;;;;10.99;53.75;100624.22;5072902;28;20052;-82
2023/11/20 10:25:15;;;;;;;2.88;1.23;;;;;;;11.00;53.64;100614.13;5068928;28;20048;-84
2023/11/20 10:27:43;;;;;;;3.10;0.90;;;;;;;11.01;53.83;100615.88;5057262;28;20075;-85
2023/11/20 10:30:13;;;;;;;3.83;1.05;;;;;;;11.03;53.75;100613.84;5055708;28;20040;-84
2023/11/20 10:32:42;;;;;;;2.88;1.30;;;;;;;11.02;53.66;100606.66;5069810;28;20109;-84
2023/11/20 10:35:17;;;;;;;3.42;1.10;;;;;;;11.07;53.61;100612.53;5052452;28;20045;-84
2023/11/20 10:37:52;;;;;;;3.17;1.10;;;;;;;11.08;53.45;100599.72;5071638;28;20048;-83
2023/11/20 10:40:21;;;;;;;3.05;1.17;;;;;;;11.06;53.61;100591.66;5070758;28;20118;-84
2023/11/20 10:42:49;;;;;;;2.42;0.90;;;;;;;11.08;53.61;100596.97;5055219;28;20044;-83
2023/11/20 10:45:17;;;;;;;2.63;1.02;;;;;;;11.10;53.39;100582.16;5077844;28;20138;-84
2023/11/20 10:47:48;;;;;;;6.78;1.70;;;;;;;11.11;54.02;100574.78;5077946;28;20120;-84
2023/11/20 10:50:21;;;;;;;2.67;1.13;;;;;;;11.14;53.50;100585.47;5082580;28;20048;-83
2023/11/20 10:52:49;;;;;;;;;;;;;;;10.88;54.21;100582.44;5074856;28;20540;-83
2023/11/20 10:55:28;;;;;;;3.35;1.02;;;;;;;11.12;53.41;100571.91;5069251;28;19920;-82
2023/11/20 10:57:58;;;;;;;3.97;1.10;;;;;;;11.14;53.35;100571.78;5086837;28;20044;-82
2023/11/20 11:00:26;;;;;;;2.78;0.98;;;;;;;11.14;53.62;100572.63;5080062;28;20068;-83
2023/11/20 11:02:55;;;;;;;5.55;1.48;;;;;;;11.15;53.01;100562.53;5057374;28;20040;-83
2023/11/20 11:05:39;;;;;;;3.17;0.98;;;;;;;11.16;53.16;100567.00;5075248;28;20094;-84
2023/11/20 11:08:09;;;;;;;2.50;0.93;;;;;;;11.12;53.19;100562.84;5055410;28;20041;-85
2023/11/20 11:10:40;;;;;;;2.55;0.90;;;;;;;11.13;53.41;100557.22;5074548;28;20404;-85
2023/11/20 11:13:08;;;;;;;2.13;0.93;;;;;;;11.13;53.38;100554.47;5052527;28;20036;-84
2023/11/20 11:15:38;;;;;;;3.80;1.48;;;;;;;11.14;53.47;100550.69;5077582;28;20646;-84
2023/11/20 11:18:08;;;;;;;1.20;0.80;;;;;;;11.16;53.35;100550.56;5074757;28;20040;-85
2023/11/20 11:20:44;;;;;;;2.30;1.00;;;;;;;11.16;53.64;100547.81;5071110;28;20037;-86
2023/11/20 11:23:14;;;;;;;5.10;1.17;;;;;;;11.16;53.44;100545.94;5073843;28;20036;-85
2023/11/20 11:25:49;;;;;;;3.03;1.10;;;;;;;11.20;53.44;100549.28;5069371;28;20032;-84
2023/11/20 11:28:21;;;;;;;4.45;0.88;;;;;;;11.18;53.04;100537.59;5051663;28;20417;-86
2023/11/20 11:30:51;;;;;;;2.28;1.10;;;;;;;11.19;52.94;100521.03;5054937;28;20071;-84
2023/11/20 11:33:39;;;;;;;2.47;0.80;;;;;;;11.22;52.24;100533.56;5051222;28;20047;-83
2023/11/20 11:36:30;;;;;;;2.53;0.73;;;;;;;11.20;52.51;100536.44;5041019;28;20091;-83